createdAt,value
2022-08-28T00:02:28.644Z,65.45
2022-08-28T00:08:48.558Z,65.66
2022-08-28T00:15:12.869Z,65.86
2022-08-28T00:21:31.563Z,66.18
2022-08-28T00:27:55.108Z,66.16
2022-08-28T00:34:14.563Z,66.25
2022-08-28T00:40:37.611Z,66.38
2022-08-28T00:46:57.583Z,66.74
2022-08-28T00:53:20.553Z,66.28
2022-08-28T00:59:40.558Z,66.58
2022-08-28T01:06:03.580Z,67.46
2022-08-28T01:12:23.549Z,67.43
2022-08-28T01:18:46.578Z,67.32
2022-08-28T01:25:06.572Z,67.41
2022-08-28T01:31:29.622Z,67.24
2022-08-28T01:37:49.555Z,67.52
2022-08-28T01:44:12.560Z,67.5
2022-08-28T01:50:32.597Z,67.45
2022-08-28T01:56:55.557Z,67.3
2022-08-28T02:03:15.559Z,67.45
2022-08-28T02:09:38.569Z,66.78
2022-08-28T02:15:58.637Z,66.58
2022-08-28T02:22:21.568Z,66.57
2022-08-28T02:28:41.576Z,66.44
2022-08-28T02:35:04.560Z,66.32
2022-08-28T02:41:24.567Z,66.01
2022-08-28T02:47:47.558Z,65.61
2022-08-28T02:54:07.575Z,65.49
2022-08-28T03:00:30.572Z,65.34
2022-08-28T03:06:50.569Z,65.13
2022-08-28T03:13:13.828Z,64.91
2022-08-28T03:19:33.557Z,65.03
2022-08-28T03:25:56.563Z,65.42
2022-08-28T03:32:16.595Z,65.26
2022-08-28T03:38:39.557Z,65.31
2022-08-28T03:44:59.591Z,65.39
2022-08-28T03:51:23.395Z,65.4
2022-08-28T03:57:42.553Z,65.23
2022-08-28T04:21:23.494Z,65.56
2022-08-28T04:27:46.554Z,65.64
2022-08-28T04:34:06.556Z,65.78
2022-08-28T04:40:29.641Z,65.9
2022-08-28T04:46:49.560Z,65.87
2022-08-28T04:53:12.863Z,66.13
2022-08-28T04:59:32.571Z,66
2022-08-28T05:05:55.567Z,66.01
2022-08-28T05:12:15.580Z,65.64
2022-08-28T05:18:38.565Z,65.94
2022-08-28T05:24:58.588Z,65.79
2022-08-28T05:31:21.622Z,66.1
2022-08-28T05:37:41.554Z,65.31
2022-08-28T05:44:04.577Z,65.01
2022-08-28T05:50:24.567Z,64.97
2022-08-28T05:56:47.595Z,65.18
2022-08-28T06:03:07.560Z,65.1
2022-08-28T06:09:30.566Z,64.83
2022-08-28T06:15:50.682Z,64.25
2022-08-28T06:22:13.560Z,63.77
2022-08-28T06:28:33.595Z,63.8
2022-08-28T06:34:56.570Z,63.74
2022-08-28T06:41:16.562Z,63.44
2022-08-28T06:47:39.590Z,63.41
2022-08-28T06:53:59.562Z,63.22
2022-08-28T07:00:22.571Z,63.61
2022-08-28T07:06:42.573Z,62.68
2022-08-28T07:13:05.564Z,61.42
2022-08-28T07:19:25.583Z,61.55
2022-08-28T07:25:48.567Z,60.15
2022-08-28T07:32:08.572Z,59.94
2022-08-28T07:38:31.581Z,59.97
2022-08-28T07:44:51.747Z,59.53
2022-08-28T07:51:14.589Z,59.64
2022-08-28T07:57:34.563Z,59.12
2022-08-28T08:04:01.236Z,59.8
2022-08-28T08:10:19.978Z,59.42
2022-08-28T08:16:41.586Z,58.65
2022-08-28T08:23:02.863Z,57.48
2022-08-28T08:29:25.629Z,57.7
2022-08-28T08:35:45.647Z,56.88
2022-08-28T08:42:08.564Z,55.89
2022-08-28T08:48:28.577Z,56.4
2022-08-28T08:54:52.597Z,56.12
2022-08-28T09:01:11.630Z,54.67
2022-08-28T09:07:34.595Z,53.85
2022-08-28T09:13:54.562Z,53.49
2022-08-28T09:20:17.587Z,52.72
2022-08-28T09:26:37.554Z,52.18
2022-08-28T09:33:00.564Z,51.47
2022-08-28T09:39:20.583Z,51.14
2022-08-28T09:45:43.564Z,51.58
2022-08-28T10:09:24.079Z,49.63
2022-08-28T10:15:43.759Z,47.85
2022-08-28T10:22:06.585Z,48.05
2022-08-28T10:28:26.563Z,46.05
2022-08-28T10:34:49.561Z,45.2
2022-08-28T10:41:09.586Z,44.56
2022-08-28T10:47:32.566Z,45.13
2022-08-28T10:53:52.584Z,44.17
2022-08-28T11:00:15.578Z,43.13
2022-08-28T11:06:35.560Z,42.96
2022-08-28T11:12:58.589Z,43.26
2022-08-28T11:19:18.557Z,42.41
2022-08-28T11:25:41.574Z,40.33
2022-08-28T11:32:01.564Z,38.68
2022-08-28T11:38:24.569Z,39.45
2022-08-28T11:44:44.580Z,38.23
2022-08-28T11:51:07.556Z,38.42
2022-08-28T11:57:27.581Z,38.27
2022-08-28T12:03:50.621Z,36.44
2022-08-28T12:10:10.568Z,35.77
2022-08-28T12:16:33.582Z,36.3
2022-08-28T12:22:53.562Z,36.24
2022-08-28T12:29:16.587Z,35.88
2022-08-28T12:35:36.566Z,33.61
2022-08-28T12:41:59.582Z,33.92
2022-08-28T12:48:19.575Z,34.44
2022-08-28T12:54:42.565Z,35.49
2022-08-28T13:01:02.589Z,33.64
2022-08-28T13:07:25.568Z,33.4
2022-08-28T13:13:45.566Z,33.29
2022-08-28T13:20:08.581Z,33.06
2022-08-28T13:26:28.569Z,31.42
2022-08-28T13:32:51.585Z,31.68
2022-08-28T13:39:11.565Z,31.93
2022-08-28T13:45:36.352Z,30.33
2022-08-28T13:51:54.589Z,30.11
2022-08-28T13:58:17.581Z,30.67
2022-08-28T14:04:37.582Z,31.42
2022-08-28T14:11:00.566Z,31.59
2022-08-28T14:17:20.559Z,32.37
2022-08-28T14:23:43.571Z,31.64
2022-08-28T14:30:03.554Z,31.87
2022-08-28T14:36:26.589Z,32.01
2022-08-28T14:42:46.564Z,31.16
2022-08-28T14:49:09.587Z,32.34
2022-08-28T14:55:29.558Z,31.49
2022-08-28T15:01:52.576Z,33.56
2022-08-28T15:08:12.578Z,33.19
2022-08-28T15:14:35.565Z,32.56
2022-08-28T15:20:55.588Z,33.26
2022-08-28T15:27:18.579Z,33.18
2022-08-28T15:33:41.109Z,32.73
2022-08-28T15:40:01.606Z,32.65
2022-08-28T15:46:21.562Z,32.74
2022-08-28T15:52:44.580Z,32.39
2022-08-28T16:08:52.483Z,32.9
2022-08-28T16:15:12.554Z,32.84
2022-08-28T16:21:35.583Z,32.41
2022-08-28T16:27:55.568Z,32.57
2022-08-28T16:34:19.551Z,33.43
2022-08-28T16:40:38.653Z,33.03
2022-08-28T16:47:01.627Z,33.04
2022-08-28T16:53:24.400Z,33.56
2022-08-28T16:59:44.582Z,33.7
2022-08-28T17:06:04.565Z,33.97
2022-08-28T17:12:27.640Z,34.93
2022-08-28T17:18:48.349Z,35.48
2022-08-28T17:25:10.566Z,36.16
2022-08-28T17:31:30.634Z,36.34
2022-08-28T17:37:53.578Z,37.14
2022-08-28T17:44:13.605Z,37.9
2022-08-28T17:50:36.579Z,38.24
2022-08-28T17:56:56.575Z,38.5
2022-08-28T18:03:19.585Z,38.99
2022-08-28T18:09:39.571Z,39.58
2022-08-28T18:16:02.656Z,39.85
2022-08-28T18:22:25.419Z,40.43
2022-08-28T18:28:45.574Z,41.05
2022-08-28T18:35:05.551Z,41.52
2022-08-28T18:41:30.757Z,41.87
2022-08-28T18:47:48.567Z,42.44
2022-08-28T18:54:11.629Z,43.2
2022-08-28T19:00:31.576Z,43.56
2022-08-28T19:06:54.576Z,44.24
2022-08-28T19:13:14.560Z,44.46
2022-08-28T19:19:37.580Z,45.28
2022-08-28T19:25:57.554Z,46.03
2022-08-28T19:32:23.125Z,46.91
2022-08-28T19:38:40.579Z,46.66
2022-08-28T19:45:03.556Z,47.39
2022-08-28T19:51:24.068Z,47.63
2022-08-28T19:57:46.559Z,48.44
2022-08-28T20:04:06.574Z,48.95
2022-08-28T20:10:29.585Z,49.1
2022-08-28T20:16:49.550Z,49.13
2022-08-28T20:23:12.794Z,49.19
2022-08-28T20:29:32.555Z,48.99
2022-08-28T20:35:55.573Z,49.07
2022-08-28T20:42:15.558Z,49.21
2022-08-28T20:48:38.563Z,49.13
2022-08-28T20:54:58.642Z,49.35
2022-08-28T21:01:21.628Z,49.21
2022-08-28T21:07:41.575Z,49.55
2022-08-28T21:14:04.557Z,49.51
2022-08-28T21:20:24.571Z,49.54
2022-08-28T21:26:47.577Z,49.44
2022-08-28T21:33:07.567Z,50.23
2022-08-28T21:39:30.578Z,50.9
2022-08-28T22:19:52.553Z,54.13
2022-08-28T22:26:12.579Z,54.7
2022-08-28T22:32:35.559Z,55.22
2022-08-28T22:38:55.556Z,55.26
2022-08-28T22:45:18.583Z,55.63
2022-08-28T22:51:38.570Z,55.83
2022-08-28T22:58:01.590Z,56.38
2022-08-28T23:04:21.623Z,56.92
2022-08-28T23:10:58.333Z,57.16
2022-08-28T23:17:04.645Z,57.13
2022-08-28T23:23:27.604Z,58.04
2022-08-28T23:29:47.572Z,58.25
2022-08-28T23:36:10.592Z,58.71
2022-08-28T23:42:30.556Z,58.86
2022-08-28T23:48:53.573Z,59.56
2022-08-28T23:55:13.564Z,59.51
